Pio Ix, Brazil
Current Conditions -  °F | °C
As of 10:00 AM on Saturday 25 Oct 2014 (Local Time) from SBJU Reporting Station
Broken Clouds Broken Clouds  
Wind Chill: 86°   Ceiling: 2000
Heat Index: 88°   Visibility: 6mi
Dew Point: 66°   Wind: 8mph
Humidity: 51%   Direction: 140°SE
Pressure: 30.03"   Gusts: NA
Location:  6.84°S, 40.61°W
Report Text: SBJU 251300Z 14007KT 9999 BKN020 30/19 Q1017
Loading
Personal Weather Stations






























Interactive Weather Map
Tropical Storm Tracking
New forecast layout! Learn more

10-Day Weather Forecast

Advertisements
Track Severe Weather on mobile